Time;durP1;ratioP1;P1;durP2;ratioP2;P2;SDS_P1;SDS_P2;PMS_P1;PMS_P2;Temp;Humidity;BMP_temperature;BMP_pressure;BME280_temperature;BME280_humidity;BME280_pressure;Samples;Min_cycle;Max_cycle;Signal;HPM_P1;HPM_P2
2023/07/26 00:02:09;;;;;;;8.83;8.63;;;13.70;99.90;;;;;;6313922;22;20205;-77
2023/07/26 00:04:36;;;;;;;8.70;8.50;;;13.70;99.90;;;;;;6314110;22;20267;-77
2023/07/26 00:07:03;;;;;;;8.10;7.90;;;13.70;99.90;;;;;;6313724;22;20291;-76
2023/07/26 00:09:31;;;;;;;8.20;8.00;;;13.60;99.90;;;;;;6314024;22;20219;-77
2023/07/26 00:11:58;;;;;;;7.93;7.73;;;13.60;99.90;;;;;;6313862;22;20707;-77
2023/07/26 00:14:25;;;;;;;8.10;7.90;;;13.60;99.90;;;;;;6313763;22;20201;-77
2023/07/26 00:16:52;;;;;;;8.40;8.20;;;13.70;99.90;;;;;;6314529;22;20205;-77
2023/07/26 00:19:19;;;;;;;8.90;8.60;;;13.70;99.90;;;;;;6314828;22;20204;-77
2023/07/26 00:21:46;;;;;;;8.97;8.67;;;13.70;99.90;;;;;;6313600;22;20208;-77
2023/07/26 00:24:13;;;;;;;8.70;8.50;;;13.60;99.90;;;;;;6314507;22;20201;-77
2023/07/26 00:26:42;;;;;;;8.57;8.37;;;13.70;99.90;;;;;;6324383;22;20187;-75
2023/07/26 00:29:09;;;;;;;8.60;8.40;;;13.70;99.90;;;;;;6315652;22;20196;-77
2023/07/26 00:31:36;;;;;;;8.80;8.60;;;13.70;99.90;;;;;;6314850;22;20253;-77
2023/07/26 00:34:03;;;;;;;8.53;8.33;;;13.70;99.90;;;;;;6315965;22;20232;-77
2023/07/26 00:36:30;;;;;;;8.57;8.37;;;13.70;99.90;;;;;;6314958;22;20205;-77
2023/07/26 00:38:57;;;;;;;8.80;8.60;;;13.70;99.90;;;;;;6313655;22;20220;-77
2023/07/26 00:41:24;;;;;;;8.67;8.47;;;13.70;99.90;;;;;;6313769;22;20292;-77
2023/07/26 00:43:52;;;;;;;8.70;8.50;;;13.70;99.90;;;;;;6313920;22;20197;-77
2023/07/26 00:46:20;;;;;;;8.60;8.40;;;13.70;99.90;;;;;;6314419;22;20201;-77
2023/07/26 00:48:46;;;;;;;8.60;8.40;;;13.80;99.90;;;;;;6314229;22;20208;-77
2023/07/26 00:51:14;;;;;;;8.40;8.20;;;13.80;99.90;;;;;;6315295;22;20216;-77
2023/07/26 00:53:41;;;;;;;8.80;8.60;;;13.80;99.90;;;;;;6315458;22;20235;-77
2023/07/26 00:56:09;;;;;;;8.47;8.27;;;13.80;99.90;;;;;;6315493;22;20208;-76
2023/07/26 00:58:36;;;;;;;8.50;8.30;;;13.70;99.90;;;;;;6313972;22;20277;-77
2023/07/26 01:01:05;;;;;;;8.50;8.30;;;13.70;99.90;;;;;;6314291;22;20644;-77
2023/07/26 01:03:32;;;;;;;8.47;8.27;;;13.70;99.90;;;;;;6314560;22;20277;-77
2023/07/26 01:06:11;;;;;;;8.40;8.20;;;13.70;99.90;;;;;;6313828;22;20200;-77
2023/07/26 01:08:52;;;;;;;8.50;8.30;;;13.70;99.90;;;;;;6313957;22;20212;-77
2023/07/26 01:11:27;;;;;;;8.57;8.37;;;13.70;99.90;;;;;;6313845;22;20280;-77
2023/07/26 01:14:00;;;;;;;8.67;8.47;;;13.70;99.90;;;;;;6314153;22;20216;-77
2023/07/26 01:16:29;;;;;;;8.60;8.40;;;13.60;99.90;;;;;;6313646;22;20219;-77
2023/07/26 01:18:56;;;;;;;8.60;8.40;;;13.70;99.90;;;;;;6321731;22;20184;-76
2023/07/26 01:21:23;;;;;;;8.67;8.47;;;13.70;99.90;;;;;;6320957;22;20288;-77
2023/07/26 01:23:51;;;;;;;8.63;8.43;;;13.60;99.90;;;;;;6318578;22;20255;-79
2023/07/26 01:26:18;;;;;;;8.80;8.60;;;13.60;99.90;;;;;;6316933;22;20348;-77
2023/07/26 01:28:45;;;;;;;8.70;8.50;;;13.60;99.90;;;;;;6313632;22;20207;-77
2023/07/26 01:31:13;;;;;;;8.70;8.50;;;13.60;99.90;;;;;;6313647;22;20203;-77
2023/07/26 01:33:42;;;;;;;8.53;8.33;;;13.60;99.90;;;;;;6314585;22;20201;-79
2023/07/26 01:36:10;;;;;;;8.37;8.17;;;13.60;99.90;;;;;;6314907;22;20231;-77
2023/07/26 01:38:38;;;;;;;8.80;8.60;;;13.60;99.90;;;;;;6315858;22;20283;-77
2023/07/26 01:41:07;;;;;;;8.80;8.60;;;13.60;99.90;;;;;;6314302;22;20287;-77
2023/07/26 01:43:34;;;;;;;8.60;8.40;;;13.60;99.90;;;;;;6314822;22;20205;-77
2023/07/26 01:46:01;;;;;;;8.67;8.47;;;13.60;99.90;;;;;;6314667;22;20209;-77
2023/07/26 01:48:28;;;;;;;8.63;8.43;;;13.60;99.90;;;;;;6314516;22;20212;-77
2023/07/26 01:50:55;;;;;;;8.50;8.30;;;13.60;99.90;;;;;;6314212;22;20217;-77
2023/07/26 01:53:22;;;;;;;8.90;8.70;;;13.60;99.90;;;;;;6314688;22;20284;-77
2023/07/26 01:55:49;;;;;;;8.60;8.40;;;13.60;99.90;;;;;;6314955;22;20205;-77
2023/07/26 01:58:17;;;;;;;8.70;8.50;;;13.60;99.90;;;;;;6314347;22;20676;-77
2023/07/26 02:00:44;;;;;;;8.60;8.40;;;13.60;99.90;;;;;;6314246;22;20205;-77
2023/07/26 02:03:11;;;;;;;8.53;8.33;;;13.50;99.90;;;;;;6314960;22;20739;-77
2023/07/26 02:05:44;;;;;;;8.90;8.70;;;13.60;99.90;;;;;;6314821;22;20236;-77
2023/07/26 02:08:11;;;;;;;8.97;8.70;;;13.50;99.90;;;;;;6314587;22;20189;-76
2023/07/26 02:10:40;;;;;;;8.80;8.60;;;13.50;99.90;;;;;;6314669;22;20224;-77
2023/07/26 02:13:07;;;;;;;8.90;8.70;;;13.50;99.90;;;;;;6325388;22;20192;-77
2023/07/26 02:15:35;;;;;;;8.93;8.73;;;13.50;99.90;;;;;;6314237;22;20227;-77
2023/07/26 02:18:02;;;;;;;9.23;8.93;;;13.40;99.90;;;;;;6314751;22;20272;-77
2023/07/26 02:20:30;;;;;;;9.27;8.97;;;13.40;99.90;;;;;;6314464;22;20343;-77
2023/07/26 02:22:58;;;;;;;9.10;8.80;;;13.40;99.90;;;;;;6314781;22;20312;-76
2023/07/26 02:25:25;;;;;;;9.50;9.20;;;13.40;99.90;;;;;;6314314;22;20189;-77
2023/07/26 02:27:52;;;;;;;9.30;9.00;;;13.40;99.90;;;;;;6314460;22;20219;-79
2023/07/26 02:30:19;;;;;;;9.10;8.80;;;13.40;99.90;;;;;;6313989;22;20240;-77
2023/07/26 02:32:47;;;;;;;9.20;8.90;;;13.40;99.90;;;;;;6314100;22;20208;-77
2023/07/26 02:35:14;;;;;;;9.23;8.93;;;13.40;99.90;;;;;;6313971;22;20295;-77
2023/07/26 02:37:41;;;;;;;9.10;8.80;;;13.40;99.90;;;;;;6314704;22;20298;-77
2023/07/26 02:40:09;;;;;;;9.30;9.00;;;13.50;99.90;;;;;;6315207;22;20205;-77
2023/07/26 02:42:36;;;;;;;8.87;8.67;;;13.50;99.90;;;;;;6322555;22;20212;-77
2023/07/26 02:45:05;;;;;;;9.17;8.87;;;13.50;99.90;;;;;;6314277;22;20211;-77
2023/07/26 02:47:32;;;;;;;8.63;8.43;;;13.50;99.90;;;;;;6313415;22;20272;-77
2023/07/26 02:50:03;;;;;;;8.80;8.60;;;13.50;99.90;;;;;;6314193;22;20295;-77
2023/07/26 02:52:31;;;;;;;8.70;8.50;;;13.50;99.90;;;;;;6314768;22;20193;-77
2023/07/26 02:54:58;;;;;;;8.77;8.57;;;13.50;99.90;;;;;;6315091;22;20216;-77
2023/07/26 02:57:25;;;;;;;8.90;8.70;;;13.50;99.90;;;;;;6315123;22;20205;-77
2023/07/26 02:59:52;;;;;;;8.80;8.60;;;13.50;99.90;;;;;;6314290;22;20208;-77
2023/07/26 03:02:19;;;;;;;8.97;8.73;;;13.50;99.90;;;;;;6314469;22;20205;-77
2023/07/26 03:04:46;;;;;;;8.70;8.50;;;13.40;99.90;;;;;;6325321;22;20201;-77
2023/07/26 03:37:41;;;;;;;9.60;9.30;;;13.10;99.90;;;;;;6200146;22;20232;-90
2023/07/26 03:44:47;;;;;;;;;;;;;;;;;;;;;
2023/07/26 03:54:49;;;;;;;9.67;9.37;;;13.10;99.90;;;;;;6159907;23;20199;-89
2023/07/26 04:01:54;;;;;;;9.80;9.50;;;13.00;99.90;;;;;;6150108;23;20220;-89
2023/07/26 04:13:38;;;;;;;9.50;9.20;;;13.00;99.90;;;;;;6200462;23;20222;-89
2023/07/26 04:16:42;;;;;;;;;;;;;;;;;;;;;
2023/07/26 04:20:01;;;;;;;9.70;9.40;;;13.10;99.90;;;;;;6361002;22;20206;-89
2023/07/26 04:25:32;;;;;;;10.00;9.70;;;13.00;99.90;;;;;;6355552;22;20297;-89
2023/07/26 04:28:10;;;;;;;10.10;9.80;;;13.00;99.90;;;;;;6358918;22;20746;-89
2023/07/26 04:31:14;;;;;;;10.20;9.90;;;13.00;99.90;;;;;;6357490;22;20199;-88
2023/07/26 04:33:48;;;;;;;9.87;9.57;;;13.10;99.90;;;;;;6352299;22;20192;-89
2023/07/26 04:36:28;;;;;;;9.80;9.50;;;13.10;99.90;;;;;;6352072;22;20206;-89
2023/07/26 04:39:12;;;;;;;10.00;9.70;;;13.10;99.90;;;;;;6352961;22;20282;-88
2023/07/26 04:41:44;;;;;;;9.90;9.60;;;13.10;99.90;;;;;;6352112;22;20219;-89
2023/07/26 04:44:16;;;;;;;10.00;9.70;;;13.20;99.90;;;;;;6352018;22;20184;-88
2023/07/26 04:46:48;;;;;;;10.23;9.93;;;13.20;99.90;;;;;;6351760;22;20352;-89
2023/07/26 04:49:26;;;;;;;10.17;9.87;;;13.20;99.90;;;;;;6351138;22;20192;-89
2023/07/26 04:52:10;;;;;;;;;;;;;;;;;;;;;
2023/07/26 04:54:58;;;;;;;9.90;9.60;;;13.30;99.90;;;;;;6351417;22;20204;-90
2023/07/26 04:57:31;;;;;;;10.03;9.73;;;13.30;99.90;;;;;;6351583;22;20283;-88
2023/07/26 05:00:18;;;;;;;10.20;9.90;;;13.20;99.90;;;;;;6350908;22;20230;-88
2023/07/26 05:03:00;;;;;;;10.27;9.97;;;13.30;99.90;;;;;;6352098;22;20226;-88
2023/07/26 05:05:42;;;;;;;10.10;9.80;;;13.30;99.90;;;;;;6353410;22;20250;-88
2023/07/26 05:08:17;;;;;;;10.50;10.20;;;13.30;99.90;;;;;;6352738;22;20196;-90
2023/07/26 05:11:04;;;;;;;10.10;9.80;;;13.40;99.90;;;;;;6368659;22;20199;-87
2023/07/26 05:13:50;;;;;;;10.50;10.20;;;13.40;99.90;;;;;;6354085;22;20189;-91
2023/07/26 05:16:25;;;;;;;10.10;9.80;;;13.40;99.90;;;;;;6350893;22;20196;-87
2023/07/26 05:18:57;;;;;;;10.30;10.00;;;13.50;99.90;;;;;;6353368;22;20192;-90
2023/07/26 05:21:31;;;;;;;10.37;10.07;;;13.60;99.90;;;;;;6351494;22;20246;-89
2023/07/26 05:24:07;;;;;;;10.30;10.00;;;13.60;99.90;;;;;;6350613;22;20258;-88
2023/07/26 05:26:48;;;;;;;10.47;10.17;;;13.70;99.90;;;;;;6360934;22;20259;-89
2023/07/26 05:29:25;;;;;;;10.70;10.40;;;13.80;99.90;;;;;;6358150;22;20196;-88
2023/07/26 05:32:00;;;;;;;10.40;10.10;;;13.80;99.90;;;;;;6351978;22;20290;-88
2023/07/26 05:34:41;;;;;;;10.13;9.83;;;13.80;99.90;;;;;;6352164;22;20226;-88
2023/07/26 05:37:35;;;;;;;10.20;9.90;;;13.80;99.90;;;;;;6353514;22;20279;-88
2023/07/26 05:40:09;;;;;;;10.30;10.00;;;13.80;99.90;;;;;;6351013;22;20295;-88
2023/07/26 05:42:47;;;;;;;10.30;10.00;;;13.90;99.90;;;;;;6354641;22;20188;-89
2023/07/26 05:45:24;;;;;;;10.50;10.20;;;13.90;99.90;;;;;;6372108;22;20191;-93
2023/07/26 05:47:52;;;;;;;10.20;9.90;;;13.90;99.90;;;;;;6374743;22;20188;-91
2023/07/26 05:50:29;;;;;;;10.20;9.90;;;14.00;99.90;;;;;;6373535;22;20187;-91
2023/07/26 05:53:04;;;;;;;10.20;9.90;;;14.10;99.90;;;;;;6371461;22;20195;-89
2023/07/26 05:55:50;;;;;;;10.00;9.70;;;14.10;99.90;;;;;;6372763;22;20195;-89
2023/07/26 05:58:30;;;;;;;10.00;9.70;;;14.30;99.90;;;;;;6373715;22;20192;-91
2023/07/26 06:01:09;;;;;;;10.10;9.80;;;14.40;99.90;;;;;;6371677;22;20179;-88
2023/07/26 06:03:38;;;;;;;10.50;10.20;;;14.50;99.90;;;;;;6373265;22;20207;-91
2023/07/26 06:06:20;;;;;;;10.45;10.15;;;14.70;99.90;;;;;;6364429;22;20227;-88
2023/07/26 06:08:53;;;;;;;9.95;9.65;;;14.70;99.90;;;;;;6362269;22;20242;-88
2023/07/26 06:11:26;;;;;;;10.05;9.75;;;14.80;99.90;;;;;;6358715;22;20249;-89
2023/07/26 06:16:56;;;;;;;10.00;9.70;;;14.80;99.90;;;;;;6344719;22;20275;-88
2023/07/26 06:19:30;;;;;;;10.00;9.70;;;14.90;99.90;;;;;;6352059;22;20263;-88
2023/07/26 06:22:09;;;;;;;10.07;9.77;;;15.00;99.90;;;;;;6351712;22;20267;-88
2023/07/26 06:24:41;;;;;;;10.20;9.90;;;15.00;99.90;;;;;;6352534;22;21044;-89
2023/07/26 06:27:09;;;;;;;10.00;9.70;;;15.10;99.90;;;;;;6352136;22;20254;-88
2023/07/26 06:29:43;;;;;;;10.30;10.00;;;15.20;99.90;;;;;;6351514;22;20274;-88
2023/07/26 06:32:20;;;;;;;10.50;10.20;;;15.30;99.90;;;;;;6350821;22;20194;-89
2023/07/26 06:34:50;;;;;;;10.30;10.00;;;15.30;99.90;;;;;;6351031;22;20199;-88
2023/07/26 06:37:23;;;;;;;10.20;9.90;;;15.40;99.90;;;;;;6351404;22;20212;-88
2023/07/26 06:40:07;;;;;;;10.60;10.30;;;15.40;99.90;;;;;;6351433;22;20270;-88
2023/07/26 06:42:43;;;;;;;10.18;9.88;;;15.50;99.90;;;;;;6351052;22;20237;-88
2023/07/26 06:45:26;;;;;;;9.95;9.65;;;15.50;99.90;;;;;;6351500;22;20263;-88
2023/07/26 06:47:58;;;;;;;10.38;10.07;;;15.50;99.90;;;;;;6351342;22;20200;-89
2023/07/26 06:50:48;;;;;;;9.95;9.65;;;15.70;99.90;;;;;;6350789;22;20311;-88
2023/07/26 06:53:22;;;;;;;10.20;9.90;;;15.80;99.90;;;;;;6351184;22;20203;-88
2023/07/26 06:55:55;;;;;;;10.32;10.02;;;15.80;99.90;;;;;;6352659;22;20183;-88
2023/07/26 06:58:28;;;;;;;10.38;10.07;;;15.80;99.90;;;;;;6352455;22;20216;-88
2023/07/26 07:01:07;;;;;;;10.10;9.80;;;15.80;99.90;;;;;;6354143;22;20196;-88
2023/07/26 07:03:40;;;;;;;9.98;9.68;;;15.90;99.90;;;;;;6351956;22;20193;-88
2023/07/26 07:09:00;;;;;;;10.20;9.90;;;16.00;99.90;;;;;;6349372;22;20223;-88
2023/07/26 07:14:18;;;;;;;10.30;10.00;;;16.20;99.90;;;;;;6346585;22;20199;-88
2023/07/26 07:17:10;;;;;;;10.27;9.98;;;16.30;99.90;;;;;;6352571;22;20207;-88
2023/07/26 07:19:53;;;;;;;;;;;;;;;;;;;;;
2023/07/26 07:22:40;;;;;;;10.15;9.85;;;16.40;99.90;;;;;;6352942;22;20196;-88
2023/07/26 07:25:19;;;;;;;10.15;9.85;;;16.40;99.90;;;;;;6351652;22;20188;-88
2023/07/26 07:27:54;;;;;;;10.23;9.93;;;16.50;99.90;;;;;;6351325;22;20207;-88
2023/07/26 07:30:22;;;;;;;10.32;10.02;;;16.60;99.90;;;;;;6351354;22;20187;-89
2023/07/26 07:32:55;;;;;;;10.63;10.32;;;16.70;99.90;;;;;;6350536;22;20195;-89
2023/07/26 07:35:27;;;;;;;10.20;9.90;;;16.90;99.90;;;;;;6350669;22;20371;-88
2023/07/26 07:38:36;;;;;;;10.38;10.07;;;17.00;99.90;;;;;;6350878;22;20196;-89
2023/07/26 07:41:17;;;;;;;9.90;9.60;;;17.10;99.90;;;;;;6350607;22;20283;-88
2023/07/26 07:43:45;;;;;;;10.07;9.77;;;17.10;99.90;;;;;;6351491;22;20676;-89
2023/07/26 07:46:18;;;;;;;10.35;10.05;;;17.00;99.90;;;;;;6352652;22;20208;-89
2023/07/26 07:49:36;;;;;;;10.30;10.00;;;16.80;99.90;;;;;;6353164;22;20199;-89
2023/07/26 07:52:14;;;;;;;10.82;10.52;;;16.80;99.90;;;;;;6360248;22;20195;-90
2023/07/26 07:55:10;;;;;;;10.70;10.40;;;16.90;99.90;;;;;;6358786;22;20192;-90
2023/07/26 07:57:43;;;;;;;10.80;10.50;;;17.00;99.90;;;;;;6352346;22;20207;-88
2023/07/26 08:00:12;;;;;;;10.80;10.50;;;17.00;99.90;;;;;;6352061;22;20200;-89
2023/07/26 08:02:43;;;;;;;10.90;10.60;;;17.20;99.90;;;;;;6351824;22;20203;-89
2023/07/26 08:08:21;;;;;;;10.90;10.60;;;17.50;99.90;;;;;;6350766;22;20215;-89
2023/07/26 08:10:55;;;;;;;10.68;10.38;;;17.80;99.90;;;;;;6353181;22;20239;-89
2023/07/26 08:13:27;;;;;;;10.65;10.35;;;17.90;99.90;;;;;;6321873;22;20198;-89
2023/07/26 08:16:24;;;;;;;10.70;10.40;;;17.80;99.90;;;;;;6321328;22;20191;-89
2023/07/26 08:19:01;;;;;;;10.50;10.20;;;17.80;99.90;;;;;;6322310;22;20296;-88
2023/07/26 08:21:35;;;;;;;10.50;10.20;;;17.80;99.90;;;;;;6321934;22;20196;-88
2023/07/26 08:24:14;;;;;;;10.63;10.32;;;17.80;99.90;;;;;;6321718;22;20284;-89
2023/07/26 08:26:57;;;;;;;10.90;10.60;;;17.70;99.90;;;;;;6323448;22;20201;-89
2023/07/26 08:29:36;;;;;;;10.50;10.20;;;17.60;99.90;;;;;;6321888;22;20201;-89
2023/07/26 08:32:15;;;;;;;10.30;10.00;;;17.50;99.90;;;;;;6321350;22;20185;-89
2023/07/26 08:34:52;;;;;;;10.60;10.30;;;17.20;99.90;;;;;;6321229;22;20195;-89
2023/07/26 08:37:30;;;;;;;10.43;10.13;;;17.00;99.90;;;;;;6321046;22;20196;-89
2023/07/26 08:40:09;;;;;;;10.05;9.75;;;16.90;99.90;;;;;;6326265;22;20219;-89
2023/07/26 08:42:59;;;;;;;9.65;9.35;;;16.80;99.90;;;;;;6324982;22;20203;-90
2023/07/26 08:45:36;;;;;;;10.00;9.70;;;16.80;99.90;;;;;;6328216;22;20184;-92
2023/07/26 09:02:04;;;;;;;10.50;10.20;;;16.20;99.90;;;;;;6338053;22;20216;-89
2023/07/26 09:04:45;;;;;;;10.20;9.90;;;16.50;99.90;;;;;;6322307;22;20185;-89
2023/07/26 09:07:13;;;;;;;10.60;10.30;;;16.90;99.90;;;;;;6296800;22;20216;-80
2023/07/26 09:09:41;;;;;;;10.70;10.40;;;17.30;99.90;;;;;;6295913;22;20202;-79
2023/07/26 09:12:09;;;;;;;10.80;10.50;;;17.40;99.90;;;;;;6289420;22;20202;-79
2023/07/26 09:14:38;;;;;;;10.88;10.57;;;17.60;99.90;;;;;;6288399;22;20217;-81
2023/07/26 09:17:06;;;;;;;10.77;10.48;;;17.90;99.90;;;;;;6274156;22;20232;-79
2023/07/26 09:19:34;;;;;;;10.75;10.45;;;18.20;99.90;;;;;;6256603;22;20284;-80
2023/07/26 09:22:04;;;;;;;10.70;10.40;;;18.30;99.90;;;;;;6255864;22;20214;-80
2023/07/26 09:24:34;;;;;;;10.35;10.05;;;18.20;99.90;;;;;;6256030;22;20226;-80
2023/07/26 09:27:06;;;;;;;10.40;10.10;;;18.10;99.90;;;;;;6255501;22;20224;-80
2023/07/26 09:29:34;;;;;;;10.43;10.13;;;18.00;99.90;;;;;;6256297;22;20205;-80
2023/07/26 09:32:03;;;;;;;10.40;10.10;;;17.60;99.90;;;;;;6255459;22;20202;-80
2023/07/26 09:34:31;;;;;;;10.68;10.38;;;17.40;99.90;;;;;;6257108;22;20211;-79
2023/07/26 09:36:59;;;;;;;10.80;10.50;;;17.30;99.90;;;;;;6256421;22;20206;-80
2023/07/26 09:39:28;;;;;;;10.80;10.50;;;17.30;99.90;;;;;;6255836;22;20194;-80
2023/07/26 09:42:08;;;;;;;10.60;10.30;;;17.30;99.90;;;;;;6255544;22;20195;-79
2023/07/26 09:44:35;;;;;;;10.65;10.35;;;17.50;99.90;;;;;;6255514;22;20186;-80
2023/07/26 09:47:05;;;;;;;10.80;10.50;;;17.60;99.90;;;;;;6256331;22;20199;-80
2023/07/26 09:49:32;;;;;;;10.73;10.43;;;17.70;99.90;;;;;;6255769;22;20198;-80
2023/07/26 09:52:03;;;;;;;10.40;10.10;;;17.60;99.90;;;;;;6255733;22;20230;-80
2023/07/26 09:54:31;;;;;;;10.48;10.18;;;17.60;99.90;;;;;;6256511;22;20345;-79
2023/07/26 09:56:59;;;;;;;10.57;10.27;;;17.70;99.90;;;;;;6255347;22;20198;-79
2023/07/26 09:59:28;;;;;;;10.38;10.07;;;17.80;99.90;;;;;;6256050;22;20206;-80
2023/07/26 10:01:58;;;;;;;10.20;9.90;;;17.80;99.90;;;;;;6263278;22;20209;-80
2023/07/26 10:04:36;;;;;;;10.07;9.77;;;17.70;99.90;;;;;;6254375;22;20210;-80
2023/07/26 10:07:07;;;;;;;9.70;9.40;;;17.60;99.90;;;;;;6255229;22;20206;-80
2023/07/26 10:09:35;;;;;;;9.65;9.35;;;17.70;99.90;;;;;;6255208;22;20190;-80
2023/07/26 10:12:03;;;;;;;9.32;9.02;;;17.90;99.90;;;;;;6255085;22;20232;-80
2023/07/26 10:14:33;;;;;;;9.80;9.50;;;17.70;99.90;;;;;;6255025;22;20194;-80
2023/07/26 10:17:01;;;;;;;9.40;9.10;;;17.60;99.90;;;;;;6259438;22;20201;-80
2023/07/26 10:19:29;;;;;;;9.82;9.52;;;17.30;99.90;;;;;;6267418;22;20257;-79
2023/07/26 10:21:57;;;;;;;10.40;10.10;;;16.50;99.90;;;;;;6265553;22;20232;-79
2023/07/26 10:24:26;;;;;;;10.85;10.55;;;15.40;99.90;;;;;;6264831;22;20186;-79
2023/07/26 10:26:54;;;;;;;10.37;10.07;;;13.80;99.90;;;;;;6267975;22;20210;-80
2023/07/26 10:29:21;;;;;;;10.43;10.13;;;12.90;99.90;;;;;;6259041;22;20209;-79
2023/07/26 10:32:01;;;;;;;10.30;10.00;;;12.30;99.90;;;;;;6260158;22;20253;-79
2023/07/26 10:34:30;;;;;;;9.90;9.60;;;12.10;99.90;;;;;;6264330;22;20193;-80
2023/07/26 10:36:57;;;;;;;9.77;9.47;;;12.10;99.90;;;;;;6259372;22;20214;-80
2023/07/26 10:39:33;;;;;;;9.37;9.07;;;12.00;99.90;;;;;;6258923;22;20194;-79
2023/07/26 10:42:01;;;;;;;9.30;9.00;;;12.00;99.90;;;;;;6257168;22;20194;-80
2023/07/26 10:44:31;;;;;;;9.07;8.77;;;12.00;99.90;;;;;;6258148;22;20198;-80
2023/07/26 10:47:03;;;;;;;8.80;8.60;;;12.00;99.90;;;;;;6257919;22;20198;-79
2023/07/26 10:49:36;;;;;;;9.23;8.93;;;12.10;99.90;;;;;;6260105;22;20198;-79
2023/07/26 10:52:05;;;;;;;9.40;9.10;;;12.10;99.90;;;;;;6263678;22;20190;-79
2023/07/26 10:54:34;;;;;;;9.17;8.87;;;12.30;99.90;;;;;;6255322;22;20229;-79
2023/07/26 10:57:18;;;;;;;9.50;9.20;;;12.50;99.90;;;;;;6253933;22;20248;-79
2023/07/26 11:00:04;;;;;;;9.43;9.13;;;12.70;99.90;;;;;;6255125;22;20190;-79
2023/07/26 11:02:44;;;;;;;8.73;8.53;;;13.20;99.90;;;;;;6255532;22;20222;-80
2023/07/26 11:05:15;;;;;;;9.60;9.30;;;13.70;99.90;;;;;;6255602;22;20196;-80
2023/07/26 11:07:54;;;;;;;9.50;9.20;;;14.10;99.90;;;;;;6255922;22;20206;-80
2023/07/26 11:10:24;;;;;;;9.50;9.20;;;14.50;99.90;;;;;;6256007;22;20202;-79
2023/07/26 11:13:06;;;;;;;10.00;9.70;;;14.90;99.90;;;;;;6256433;22;20198;-80
2023/07/26 11:15:35;;;;;;;9.68;9.38;;;15.20;99.90;;;;;;6258941;22;20210;-80
2023/07/26 11:18:04;;;;;;;9.95;9.65;;;15.60;99.90;;;;;;6259231;22;20221;-79
2023/07/26 11:20:32;;;;;;;9.60;9.30;;;15.70;99.90;;;;;;6257354;22;20233;-80
2023/07/26 11:22:59;;;;;;;9.95;9.65;;;16.00;99.90;;;;;;6255725;22;20257;-80
2023/07/26 11:25:26;;;;;;;9.90;9.60;;;16.10;99.90;;;;;;6255994;22;20286;-80
2023/07/26 11:27:55;;;;;;;9.77;9.48;;;16.20;99.90;;;;;;6257429;22;20198;-79
2023/07/26 11:30:22;;;;;;;9.88;9.57;;;16.40;99.90;;;;;;6257323;22;20241;-78
2023/07/26 11:32:51;;;;;;;9.65;9.35;;;16.60;99.90;;;;;;6257650;22;20557;-79
2023/07/26 11:35:20;;;;;;;9.70;9.40;;;16.90;99.90;;;;;;6257520;22;20202;-80
2023/07/26 11:37:57;;;;;;;9.95;9.65;;;17.30;99.90;;;;;;6257883;22;20198;-79
2023/07/26 11:40:24;;;;;;;10.18;9.88;;;17.80;99.90;;;;;;6256707;22;20213;-80
2023/07/26 11:42:52;;;;;;;9.50;9.20;;;18.40;99.90;;;;;;6259585;22;20214;-80
2023/07/26 11:45:21;;;;;;;9.35;9.05;;;18.90;99.90;;;;;;6267468;22;20256;-80
2023/07/26 11:47:48;;;;;;;9.13;8.82;;;19.20;99.90;;;;;;6266134;22;20210;-79
2023/07/26 11:50:21;;;;;;;9.70;9.40;;;19.20;99.90;;;;;;6267705;22;20212;-79
2023/07/26 11:53:05;;;;;;;9.82;9.52;;;19.10;99.90;;;;;;6265837;22;20197;-79
2023/07/26 11:55:32;;;;;;;9.32;9.02;;;18.90;99.90;;;;;;6259683;22;20219;-80
2023/07/26 11:58:03;;;;;;;9.60;9.30;;;18.70;99.90;;;;;;6257601;22;20210;-80
2023/07/26 12:00:33;;;;;;;10.07;9.77;;;18.60;99.90;;;;;;6257684;22;20225;-80
2023/07/26 12:03:01;;;;;;;9.60;9.30;;;18.30;99.90;;;;;;6270146;22;20202;-78
2023/07/26 12:05:28;;;;;;;9.80;9.50;;;18.20;99.90;;;;;;6259384;22;20198;-77
2023/07/26 12:08:06;;;;;;;9.55;9.25;;;17.90;99.90;;;;;;6255878;22;20214;-78
2023/07/26 12:10:37;;;;;;;9.40;9.10;;;17.80;99.90;;;;;;6255737;22;20182;-78
2023/07/26 12:13:08;;;;;;;9.55;9.25;;;17.70;99.90;;;;;;6254413;22;20190;-80
2023/07/26 12:15:51;;;;;;;9.70;9.40;;;17.50;99.90;;;;;;6254946;22;20198;-79
2023/07/26 12:18:18;;;;;;;9.85;9.55;;;17.30;99.90;;;;;;6253909;22;20210;-79
2023/07/26 12:21:08;;;;;;;9.73;9.43;;;17.30;99.90;;;;;;6254607;22;20204;-78
2023/07/26 12:23:51;;;;;;;9.90;9.60;;;17.40;99.90;;;;;;6237795;22;20198;-78
2023/07/26 12:26:21;;;;;;;10.30;10.00;;;17.50;99.90;;;;;;6253601;22;20194;-78
2023/07/26 12:28:48;;;;;;;9.90;9.60;;;17.50;99.90;;;;;;6253205;22;20202;-79
2023/07/26 12:31:19;;;;;;;9.80;9.50;;;17.50;99.90;;;;;;6253065;22;20198;-79
2023/07/26 12:34:00;;;;;;;9.70;9.40;;;17.60;99.90;;;;;;6253731;22;20194;-77
2023/07/26 12:36:32;;;;;;;9.75;9.45;;;17.80;99.90;;;;;;6264143;22;20626;-79
2023/07/26 12:38:59;;;;;;;10.18;9.88;;;17.60;99.90;;;;;;6256848;22;20245;-79
2023/07/26 12:41:40;;;;;;;9.70;9.40;;;17.90;99.90;;;;;;6254088;22;20202;-80
2023/07/26 12:44:07;;;;;;;9.98;9.68;;;18.40;99.90;;;;;;6255693;22;20213;-80
2023/07/26 12:46:39;;;;;;;9.70;9.40;;;18.90;99.90;;;;;;6255449;22;20221;-79
2023/07/26 12:49:10;;;;;;;9.68;9.38;;;19.20;99.90;;;;;;6255719;22;20198;-79
2023/07/26 12:51:39;;;;;;;9.38;9.07;;;19.60;99.90;;;;;;6255836;22;20221;-79
2023/07/26 12:54:09;;;;;;;9.30;9.00;;;19.60;99.90;;;;;;6255297;22;20191;-79
2023/07/26 12:56:40;;;;;;;8.95;8.75;;;19.60;99.90;;;;;;6254731;22;20210;-79
2023/07/26 12:59:07;;;;;;;9.48;9.18;;;19.80;99.90;;;;;;6255848;22;20214;-78
2023/07/26 13:01:38;;;;;;;9.60;9.30;;;19.70;99.90;;;;;;6255441;22;20191;-79
2023/07/26 13:04:05;;;;;;;9.60;9.30;;;19.60;99.90;;;;;;6260605;22;20281;-79
2023/07/26 13:06:34;;;;;;;9.70;9.40;;;19.70;99.90;;;;;;6255958;22;20213;-77
2023/07/26 13:09:01;;;;;;;9.90;9.60;;;19.80;99.90;;;;;;6255691;22;20228;-80
2023/07/26 13:11:28;;;;;;;9.90;9.60;;;19.90;99.90;;;;;;6254465;22;20291;-80
2023/07/26 13:14:00;;;;;;;10.13;9.82;;;20.00;99.90;;;;;;6256015;22;20194;-79
2023/07/26 13:16:29;;;;;;;10.32;10.02;;;19.90;99.90;;;;;;6255453;22;20206;-78
2023/07/26 13:18:56;;;;;;;10.20;9.90;;;19.90;99.90;;;;;;6256483;22;20194;-79
2023/07/26 13:21:23;;;;;;;9.70;9.40;;;19.90;99.90;;;;;;6254916;22;20281;-79
2023/07/26 13:23:50;;;;;;;9.98;9.68;;;19.90;99.90;;;;;;6255733;22;20222;-79
2023/07/26 13:26:17;;;;;;;9.65;9.35;;;19.70;99.90;;;;;;6255544;22;20231;-80
2023/07/26 13:28:44;;;;;;;9.93;9.63;;;19.70;99.90;;;;;;6263918;22;20272;-79
2023/07/26 13:31:13;;;;;;;9.30;9.00;;;19.70;99.90;;;;;;6253580;22;20194;-79
2023/07/26 13:33:43;;;;;;;9.93;9.63;;;19.70;99.90;;;;;;6254134;22;20199;-79
2023/07/26 13:36:10;;;;;;;9.70;9.40;;;19.50;99.90;;;;;;6253647;22;20194;-78
2023/07/26 13:38:37;;;;;;;9.55;9.25;;;19.30;99.90;;;;;;6253086;22;20202;-78
2023/07/26 13:41:04;;;;;;;10.00;9.70;;;19.10;99.90;;;;;;6252773;22;20193;-78
2023/07/26 13:43:31;;;;;;;10.15;9.85;;;18.80;99.90;;;;;;6252887;22;20202;-78
2023/07/26 13:46:01;;;;;;;9.98;9.68;;;18.60;99.90;;;;;;6252770;22;20190;-78
2023/07/26 13:48:29;;;;;;;9.90;9.60;;;18.50;99.90;;;;;;6252912;22;20230;-78
2023/07/26 13:50:56;;;;;;;10.07;9.77;;;18.30;99.90;;;;;;6256862;22;20205;-79
2023/07/26 13:53:24;;;;;;;10.18;9.88;;;18.10;99.90;;;;;;6258276;22;20257;-79
2023/07/26 13:55:51;;;;;;;9.98;9.68;;;17.80;99.90;;;;;;6254095;22;20210;-79
2023/07/26 13:58:18;;;;;;;10.00;9.70;;;17.70;99.90;;;;;;6253947;22;20198;-79
2023/07/26 14:00:45;;;;;;;10.30;10.00;;;17.50;99.90;;;;;;6254245;22;20249;-78
2023/07/26 14:03:12;;;;;;;10.27;9.98;;;17.30;99.90;;;;;;6256816;22;20225;-78
2023/07/26 14:05:40;;;;;;;10.27;9.98;;;17.20;99.90;;;;;;6257014;22;20294;-79
2023/07/26 14:08:07;;;;;;;10.70;10.40;;;17.00;99.90;;;;;;6257191;22;20202;-78
2023/07/26 14:10:36;;;;;;;10.20;9.90;;;16.90;99.90;;;;;;6257023;22;20209;-78
2023/07/26 14:13:03;;;;;;;10.35;10.05;;;16.80;99.90;;;;;;6256611;22;20201;-78
2023/07/26 14:15:30;;;;;;;10.20;9.90;;;16.60;99.90;;;;;;6256803;22;20213;-78
2023/07/26 14:17:57;;;;;;;10.50;10.20;;;16.40;99.90;;;;;;6257707;22;20208;-79
2023/07/26 14:20:24;;;;;;;10.40;10.10;;;16.40;99.90;;;;;;6269016;22;20202;-78
2023/07/26 14:22:53;;;;;;;9.80;9.50;;;16.80;99.90;;;;;;6265781;22;20207;-79
2023/07/26 14:25:20;;;;;;;10.00;9.70;;;17.10;99.90;;;;;;6261467;22;20202;-79
2023/07/26 14:27:50;;;;;;;9.48;9.18;;;17.30;99.90;;;;;;6256137;22;20277;-79
2023/07/26 14:30:17;;;;;;;9.65;9.35;;;17.70;99.90;;;;;;6255908;22;20218;-79
2023/07/26 14:32:44;;;;;;;9.60;9.30;;;18.40;99.90;;;;;;6254051;22;20265;-79
2023/07/26 14:35:11;;;;;;;9.73;9.43;;;19.00;99.90;;;;;;6255746;22;20206;-79
2023/07/26 14:37:38;;;;;;;9.80;9.50;;;19.60;99.90;;;;;;6255086;22;20198;-79